Time;durP1;ratioP1;P1;durP2;ratioP2;P2;SDS_P1;SDS_P2;PMS_P1;PMS_P2;Temp;Humidity;BMP_temperature;BMP_pressure;BME280_temperature;BME280_humidity;BME280_pressure;Samples;Min_cycle;Max_cycle;Signal;HPM_P1;HPM_P2
2022/03/26 00:00:22;;;;;;;30.45;18.92;;;;;;;9.97;62.14;103028.81;5275605;28;20567;-71
2022/03/26 00:02:54;;;;;;;30.10;19.05;;;;;;;9.86;62.31;103024.06;5276950;28;20382;-71
2022/03/26 00:05:26;;;;;;;32.77;19.10;;;;;;;9.93;62.34;103038.59;5277724;28;20036;-70
2022/03/26 00:07:57;;;;;;;30.75;19.63;;;;;;;9.81;62.46;103027.81;5275471;28;20290;-71
2022/03/26 00:10:28;;;;;;;29.83;19.13;;;;;;;9.81;63.27;103030.44;5276361;28;20024;-71
2022/03/26 00:12:59;;;;;;;33.13;20.38;;;;;;;9.71;63.00;103030.03;5276371;28;20064;-71
2022/03/26 00:15:31;;;;;;;32.05;20.02;;;;;;;9.69;63.30;103030.09;5275946;28;20050;-70
2022/03/26 00:18:02;;;;;;;35.05;20.40;;;;;;;9.62;63.26;103026.06;5273448;28;20393;-71
2022/03/26 00:20:33;;;;;;;37.35;19.88;;;;;;;9.60;63.44;103033.13;5273411;28;20067;-71
2022/03/26 00:23:05;;;;;;;31.52;19.83;;;;;;;9.61;63.84;103024.34;5277042;28;20030;-70
2022/03/26 00:25:36;;;;;;;30.08;18.73;;;;;;;9.56;63.65;103028.13;5275855;28;20055;-71
2022/03/26 00:28:07;;;;;;;30.92;19.30;;;;;;;9.51;63.77;103017.88;5276831;28;20025;-71
2022/03/26 00:30:39;;;;;;;31.02;19.70;;;;;;;9.45;63.84;103021.59;5275902;28;20063;-71
2022/03/26 00:33:10;;;;;;;28.02;19.15;;;;;;;9.40;64.57;103020.97;5277101;28;20115;-71
2022/03/26 00:35:42;;;;;;;32.95;20.65;;;;;;;9.45;65.04;103015.50;5276763;28;20008;-71
2022/03/26 00:38:13;;;;;;;32.13;20.67;;;;;;;9.29;64.88;103022.38;5276081;28;20099;-71
2022/03/26 00:40:44;;;;;;;27.15;19.77;;;;;;;9.22;65.50;103019.16;5277488;28;20027;-71
2022/03/26 00:43:16;;;;;;;29.65;19.67;;;;;;;9.11;65.85;103021.41;5274978;28;20069;-71
2022/03/26 00:45:47;;;;;;;36.35;21.20;;;;;;;9.08;66.00;103026.75;5275732;28;20118;-70
2022/03/26 00:48:19;;;;;;;31.23;21.40;;;;;;;8.96;66.10;103023.75;5276120;28;20036;-71
2022/03/26 00:50:50;;;;;;;39.92;21.05;;;;;;;8.91;66.35;103019.66;5276594;28;20024;-71
2022/03/26 00:53:21;;;;;;;30.98;20.55;;;;;;;8.83;67.55;103026.97;5275966;28;20024;-71
2022/03/26 00:55:52;;;;;;;29.88;20.20;;;;;;;8.77;67.28;103026.31;5273625;28;20478;-71
2022/03/26 00:58:24;;;;;;;33.97;19.40;;;;;;;8.70;67.59;103027.47;5274340;28;20757;-71
2022/03/26 01:00:55;;;;;;;28.25;20.30;;;;;;;8.63;67.68;103028.66;5274906;28;20062;-71
2022/03/26 01:03:27;;;;;;;33.25;21.33;;;;;;;8.65;67.59;103028.59;5272394;28;20392;-70
2022/03/26 01:05:58;;;;;;;32.40;19.83;;;;;;;8.53;67.93;103022.97;5275526;28;20024;-70
2022/03/26 01:08:31;;;;;;;29.73;20.20;;;;;;;8.43;68.06;103024.25;5275535;28;20279;-71
2022/03/26 01:11:02;;;;;;;31.92;20.67;;;;;;;8.45;68.76;103025.06;5276180;28;20032;-71
2022/03/26 01:13:34;;;;;;;34.58;21.27;;;;;;;8.33;67.50;103014.19;5274733;28;20076;-70
2022/03/26 01:16:06;;;;;;;32.00;20.67;;;;;;;8.24;69.19;103018.03;5275899;28;20363;-70
2022/03/26 01:18:39;;;;;;;31.25;21.92;;;;;;;8.15;70.02;103011.44;5274443;28;20032;-70
2022/03/26 01:21:10;;;;;;;28.23;19.13;;;;;;;8.16;69.88;103014.88;5272004;28;20028;-70
2022/03/26 01:23:41;;;;;;;33.05;21.33;;;;;;;8.07;69.57;103012.63;5275569;28;20038;-70
2022/03/26 01:26:17;;;;;;;31.38;20.52;;;;;;;8.04;70.64;103009.25;5276268;28;20063;-71
2022/03/26 01:28:49;;;;;;;32.90;21.88;;;;;;;7.90;70.83;103014.16;5274415;28;20548;-71
2022/03/26 01:31:22;;;;;;;33.20;20.63;;;;;;;7.87;71.55;103013.41;5273574;28;20131;-70
2022/03/26 01:33:54;;;;;;;30.38;20.92;;;;;;;7.77;71.45;103008.56;5275136;28;20416;-71
2022/03/26 01:36:26;;;;;;;31.67;20.25;;;;;;;7.76;72.14;103019.03;5273782;28;20032;-71
2022/03/26 01:38:58;;;;;;;35.43;20.67;;;;;;;7.74;72.35;103013.88;5273998;28;20096;-70
2022/03/26 01:41:30;;;;;;;38.00;20.88;;;;;;;7.65;72.33;103005.56;5272865;28;20028;-70
2022/03/26 01:44:02;;;;;;;31.02;20.88;;;;;;;7.56;72.88;103015.44;5274825;28;20021;-70
2022/03/26 01:46:47;;;;;;;31.05;20.23;;;;;;;7.76;72.13;103022.50;5275977;28;20077;-70
2022/03/26 01:49:19;;;;;;;33.20;20.13;;;;;;;7.52;72.98;103020.81;5274035;28;20036;-70
2022/03/26 01:51:50;;;;;;;35.47;21.60;;;;;;;7.49;74.20;103024.38;5272328;28;20114;-71
2022/03/26 01:54:22;;;;;;;33.60;20.65;;;;;;;7.44;74.17;103028.09;5274625;28;20493;-71
2022/03/26 01:56:55;;;;;;;34.92;20.70;;;;;;;7.48;73.69;103025.31;5273677;28;20031;-70
2022/03/26 01:59:27;;;;;;;35.03;21.17;;;;;;;7.40;74.81;103022.13;5275426;28;21132;-70
2022/03/26 02:01:58;;;;;;;35.78;21.70;;;;;;;7.43;75.32;103026.38;5272530;28;20035;-70
2022/03/26 02:04:30;;;;;;;38.15;22.55;;;;;;;7.50;75.85;103022.63;5274084;28;20036;-71
2022/03/26 02:07:03;;;;;;;33.22;20.00;;;;;;;7.50;75.80;103020.00;5274967;28;20028;-70
2022/03/26 02:09:37;;;;;;;34.78;21.05;;;;;;;7.49;75.39;103016.56;5273481;28;20067;-70
2022/03/26 02:12:28;;;;;;;32.75;19.80;;;;;;;7.65;75.61;103013.38;5272998;28;20500;-70
2022/03/26 02:15:00;;;;;;;30.08;21.20;;;;;;;7.54;76.19;103013.81;5274465;28;20047;-70
2022/03/26 02:17:33;;;;;;;32.70;19.55;;;;;;;7.49;76.27;103021.78;5275031;28;20037;-70
2022/03/26 02:20:09;;;;;;;32.25;20.63;;;;;;;7.64;76.03;103015.13;5272893;28;20070;-71
2022/03/26 02:22:41;;;;;;;35.13;21.42;;;;;;;7.66;75.98;103015.09;5273846;28;20374;-71
2022/03/26 02:25:12;;;;;;;37.78;21.45;;;;;;;7.62;76.91;103016.13;5274878;28;21130;-71
2022/03/26 02:27:44;;;;;;;35.35;21.48;;;;;;;7.65;76.71;103015.97;5273450;28;20085;-71
2022/03/26 02:30:15;;;;;;;29.65;21.65;;;;;;;7.62;76.19;103011.75;5273849;28;20055;-70
2022/03/26 02:32:47;;;;;;;33.55;20.65;;;;;;;7.58;76.54;103010.16;5273650;28;20025;-71
2022/03/26 02:35:18;;;;;;;29.90;20.25;;;;;;;7.51;76.42;103008.69;5270875;28;20032;-70
2022/03/26 02:37:49;;;;;;;30.95;20.02;;;;;;;7.48;76.58;103014.03;5274850;28;20020;-71
2022/03/26 02:40:21;;;;;;;31.17;20.65;;;;;;;7.40;76.98;103009.09;5274577;28;20623;-70
2022/03/26 02:42:52;;;;;;;33.35;20.42;;;;;;;7.45;76.39;103012.38;5271834;28;20031;-70
2022/03/26 02:45:23;;;;;;;32.75;20.30;;;;;;;7.35;77.40;103016.25;5272513;28;20041;-70
2022/03/26 02:47:55;;;;;;;34.92;20.95;;;;;;;7.25;76.63;103020.91;5273647;28;20060;-70
2022/03/26 02:50:26;;;;;;;31.63;20.38;;;;;;;7.21;76.24;103019.34;5274243;28;20111;-70
2022/03/26 02:52:58;;;;;;;33.53;20.25;;;;;;;7.23;76.88;103024.47;5272519;28;20028;-70
2022/03/26 02:55:29;;;;;;;31.02;20.65;;;;;;;7.21;76.17;103019.34;5270913;28;20027;-70
2022/03/26 02:58:01;;;;;;;33.22;22.02;;;;;;;7.07;77.25;103019.81;5273177;28;20078;-70
2022/03/26 03:00:33;;;;;;;29.00;20.90;;;;;;;7.20;77.18;103014.19;5261851;28;20107;-70
2022/03/26 03:03:08;;;;;;;33.60;20.70;;;;;;;7.03;76.60;103015.63;5271463;28;20030;-70
2022/03/26 03:05:40;;;;;;;32.70;22.38;;;;;;;6.93;77.41;103010.78;5272270;28;20106;-71
2022/03/26 03:08:11;;;;;;;29.48;21.42;;;;;;;6.89;77.96;103009.19;5273806;28;20162;-70
2022/03/26 03:10:43;;;;;;;34.47;21.10;;;;;;;6.86;78.02;103010.16;5273376;28;20024;-70
2022/03/26 03:13:19;;;;;;;36.78;21.80;;;;;;;6.81;79.50;103009.44;5273016;28;20109;-70
2022/03/26 03:15:52;;;;;;;30.95;20.80;;;;;;;6.79;78.38;103019.09;5274886;28;20052;-70
2022/03/26 03:18:23;;;;;;;33.60;21.45;;;;;;;6.73;78.43;103014.06;5274350;28;20031;-70
2022/03/26 03:20:55;;;;;;;29.85;20.17;;;;;;;6.74;78.57;103024.47;5274578;28;20028;-71
2022/03/26 03:23:26;;;;;;;39.40;22.27;;;;;;;6.68;80.03;103016.00;5272647;28;20031;-70
2022/03/26 03:25:57;;;;;;;33.70;20.65;;;;;;;6.77;79.71;103015.66;5274245;28;20016;-70
2022/03/26 03:28:28;;;;;;;37.45;22.45;;;;;;;6.63;80.66;103013.53;5274260;28;20366;-71
2022/03/26 03:31:00;;;;;;;32.55;20.58;;;;;;;6.57;79.85;103011.97;5273681;28;20044;-70
2022/03/26 03:33:31;;;;;;;36.20;21.58;;;;;;;6.61;79.54;103015.34;5273674;28;20082;-70
2022/03/26 03:36:04;;;;;;;33.08;20.95;;;;;;;6.52;79.20;103013.91;5274396;28;20113;-70
2022/03/26 03:38:35;;;;;;;30.38;20.20;;;;;;;6.50;81.08;103018.28;5274038;28;20028;-70
2022/03/26 03:41:07;;;;;;;32.78;20.80;;;;;;;6.50;80.61;103013.09;5273747;28;20035;-71
2022/03/26 03:43:38;;;;;;;32.15;21.27;;;;;;;6.44;80.81;103012.41;5273620;28;20036;-71
2022/03/26 03:46:10;;;;;;;29.92;20.67;;;;;;;6.42;81.49;103014.25;5274207;28;20114;-70
2022/03/26 03:48:41;;;;;;;27.48;19.88;;;;;;;6.40;80.50;103021.25;5273804;28;20502;-70
2022/03/26 03:51:12;;;;;;;30.58;20.77;;;;;;;6.43;81.23;103011.56;5272585;28;20421;-70
2022/03/26 03:53:44;;;;;;;33.55;20.70;;;;;;;6.39;81.58;103016.94;5273424;28;20252;-70
2022/03/26 03:56:15;;;;;;;36.03;22.05;;;;;;;6.31;81.94;103023.25;5275943;28;20024;-70
2022/03/26 03:58:46;;;;;;;40.42;21.73;;;;;;;6.28;82.98;103020.72;5276418;28;20048;-70
2022/03/26 04:01:18;;;;;;;36.28;22.50;;;;;;;6.36;83.59;103028.28;5278346;28;20624;-70
2022/03/26 04:03:49;;;;;;;36.47;22.35;;;;;;;6.37;83.93;103024.81;5276978;28;20081;-70
2022/03/26 04:06:21;;;;;;;30.48;20.80;;;;;;;6.30;82.65;103026.75;5276457;28;20028;-70
2022/03/26 04:08:52;;;;;;;33.10;20.35;;;;;;;6.35;83.34;103026.59;5277536;28;20028;-70
2022/03/26 04:11:23;;;;;;;31.45;20.83;;;;;;;6.33;82.65;103023.22;5277346;28;20032;-71
2022/03/26 04:13:54;;;;;;;32.63;20.05;;;;;;;6.32;82.95;103029.28;5275510;28;20135;-71
2022/03/26 04:16:26;;;;;;;31.23;20.10;;;;;;;6.32;82.79;103026.69;5276440;28;20028;-70
2022/03/26 04:18:58;;;;;;;31.13;20.75;;;;;;;6.34;83.38;103033.56;5277565;28;20023;-70
2022/03/26 04:21:29;;;;;;;34.83;21.10;;;;;;;6.24;83.09;103031.28;5278156;28;20051;-70
2022/03/26 04:24:02;;;;;;;32.88;20.45;;;;;;;6.28;82.91;103030.28;5277355;28;20102;-70
2022/03/26 04:26:33;;;;;;;30.15;20.48;;;;;;;6.20;82.86;103035.75;5275851;28;20374;-70
2022/03/26 04:29:04;;;;;;;31.17;21.95;;;;;;;6.12;83.27;103027.31;5276883;28;20031;-70
2022/03/26 04:31:36;;;;;;;28.42;20.00;;;;;;;6.12;83.83;103031.69;5276839;28;20744;-70
2022/03/26 04:34:07;;;;;;;31.65;20.73;;;;;;;6.04;83.70;103029.31;5276017;28;20071;-70
2022/03/26 04:36:38;;;;;;;33.60;20.58;;;;;;;6.00;83.62;103030.31;5277263;28;20016;-70
2022/03/26 04:39:10;;;;;;;30.70;19.80;;;;;;;6.01;83.54;103026.81;5276695;28;20020;-71
2022/03/26 04:41:41;;;;;;;31.27;19.58;;;;;;;5.94;83.76;103026.13;5276308;28;20028;-70
2022/03/26 04:44:13;;;;;;;30.05;20.20;;;;;;;5.93;83.95;103024.44;5276230;28;20106;-71
2022/03/26 04:46:44;;;;;;;33.03;20.27;;;;;;;5.84;83.87;103019.50;5277194;28;20074;-71
2022/03/26 04:49:16;;;;;;;33.33;20.75;;;;;;;5.89;83.80;103029.75;5277256;28;20021;-71
2022/03/26 04:51:47;;;;;;;30.02;19.60;;;;;;;5.85;84.18;103029.00;5276186;28;20356;-71
2022/03/26 04:54:18;;;;;;;29.20;19.67;;;;;;;5.80;84.12;103028.28;5276134;28;20036;-71
2022/03/26 04:56:49;;;;;;;33.65;21.25;;;;;;;5.79;83.64;103023.97;5276987;28;20090;-71
2022/03/26 04:59:21;;;;;;;31.75;20.48;;;;;;;5.73;83.92;103031.97;5275350;28;20024;-71
2022/03/26 05:01:52;;;;;;;34.33;20.63;;;;;;;5.74;83.37;103025.84;5274716;28;20029;-71
2022/03/26 05:04:23;;;;;;;29.65;21.80;;;;;;;5.70;84.19;103024.25;5275461;28;20492;-71
2022/03/26 05:06:55;;;;;;;30.52;20.60;;;;;;;5.66;84.04;103027.84;5274637;28;20553;-71
2022/03/26 05:09:26;;;;;;;30.90;20.35;;;;;;;5.60;84.22;103019.28;5275778;28;20028;-71
2022/03/26 05:11:57;;;;;;;33.47;20.13;;;;;;;5.59;84.28;103028.00;5276961;28;20065;-71
2022/03/26 05:14:28;;;;;;;31.50;20.27;;;;;;;5.56;84.40;103027.22;5275375;28;20047;-71
2022/03/26 05:17:00;;;;;;;32.45;20.63;;;;;;;5.55;83.91;103025.53;5274227;28;20032;-70
2022/03/26 05:19:32;;;;;;;37.15;21.63;;;;;;;5.47;85.08;103019.72;5274171;28;20055;-71
2022/03/26 05:22:04;;;;;;;34.38;22.45;;;;;;;5.48;85.87;103035.25;5273459;28;20020;-71
2022/03/26 05:24:35;;;;;;;33.88;21.35;;;;;;;5.40;86.78;103042.41;5275539;28;20146;-71
2022/03/26 05:27:07;;;;;;;33.97;20.85;;;;;;;5.43;86.67;103031.09;5275552;28;20422;-71
2022/03/26 05:29:38;;;;;;;37.65;22.42;;;;;;;5.42;86.94;103031.97;5275669;28;20090;-71
2022/03/26 05:32:10;;;;;;;39.40;21.73;;;;;;;5.34;87.62;103039.97;5275154;28;20032;-71
2022/03/26 05:34:42;;;;;;;31.60;20.73;;;;;;;5.34;87.81;103053.84;5276095;28;20020;-71
2022/03/26 05:37:13;;;;;;;32.65;20.52;;;;;;;5.37;87.63;103051.16;5275526;28;20280;-70
2022/03/26 05:39:45;;;;;;;34.80;20.67;;;;;;;5.40;88.01;103051.97;5274401;28;20552;-70
2022/03/26 05:42:18;;;;;;;32.60;21.33;;;;;;;5.40;88.81;103054.56;5275580;28;20056;-70
2022/03/26 05:44:49;;;;;;;33.80;21.63;;;;;;;5.45;88.14;103056.13;5275161;28;20380;-70
2022/03/26 05:47:21;;;;;;;32.28;20.95;;;;;;;5.39;88.82;103058.91;5274677;28;20094;-70
2022/03/26 05:49:52;;;;;;;32.97;21.35;;;;;;;5.41;88.33;103062.31;5275697;28;20091;-71
2022/03/26 05:52:24;;;;;;;30.52;20.88;;;;;;;5.42;88.80;103063.16;5275472;28;20126;-71
2022/03/26 05:54:55;;;;;;;31.65;21.23;;;;;;;5.47;88.92;103064.75;5274843;28;20028;-71
2022/03/26 05:57:26;;;;;;;32.70;21.65;;;;;;;5.51;89.41;103070.72;5275798;28;20033;-70
2022/03/26 05:59:57;;;;;;;33.50;21.02;;;;;;;5.58;90.03;103078.31;5274758;28;20541;-70
2022/03/26 06:02:29;;;;;;;37.47;22.73;;;;;;;5.66;88.89;103082.44;5275027;28;20090;-71
2022/03/26 06:05:01;;;;;;;32.83;21.52;;;;;;;5.67;89.10;103084.13;5273150;28;20555;-71
2022/03/26 06:07:32;;;;;;;35.38;22.42;;;;;;;5.64;89.04;103079.88;5275818;28;20089;-70
2022/03/26 06:10:04;;;;;;;34.17;22.67;;;;;;;5.73;90.12;103081.38;5275450;28;20024;-71
2022/03/26 06:12:35;;;;;;;36.92;21.73;;;;;;;5.80;89.53;103086.38;5273816;28;20028;-71
2022/03/26 06:15:07;;;;;;;39.88;21.85;;;;;;;5.85;89.57;103086.22;5273818;28;20498;-71
2022/03/26 06:17:39;;;;;;;35.35;21.73;;;;;;;5.83;88.86;103081.06;5275358;28;20024;-70
2022/03/26 06:20:10;;;;;;;34.75;21.23;;;;;;;5.85;88.70;103078.41;5273856;28;20038;-71
2022/03/26 06:22:42;;;;;;;33.83;21.38;;;;;;;5.92;89.29;103076.50;5274769;28;20143;-70
2022/03/26 06:25:13;;;;;;;33.72;22.20;;;;;;;5.97;88.61;103085.03;5274195;28;20094;-71
2022/03/26 06:27:49;;;;;;;33.55;20.63;;;;;;;6.01;89.41;103082.28;5274373;28;20390;-71
2022/03/26 06:30:20;;;;;;;40.78;22.27;;;;;;;6.03;89.03;103079.66;5273159;28;20256;-71
2022/03/26 06:32:52;;;;;;;35.53;23.13;;;;;;;6.16;88.29;103082.75;5273907;28;20053;-71
2022/03/26 06:35:24;;;;;;;31.73;22.20;;;;;;;6.22;88.82;103086.00;5273904;28;20024;-71
2022/03/26 06:37:55;;;;;;;33.45;20.50;;;;;;;6.24;88.44;103093.75;5272975;28;20438;-71
2022/03/26 06:40:27;;;;;;;34.05;21.65;;;;;;;6.32;88.59;103092.63;5274954;28;20028;-70
2022/03/26 06:42:58;;;;;;;38.30;23.55;;;;;;;6.42;87.95;103088.00;5273028;28;20032;-70
2022/03/26 06:45:29;;;;;;;33.70;21.83;;;;;;;6.45;88.48;103093.09;5271602;28;20032;-71
2022/03/26 06:48:01;;;;;;;37.13;22.30;;;;;;;6.55;87.68;103096.25;5272830;28;20040;-71
2022/03/26 06:50:33;;;;;;;33.10;22.38;;;;;;;6.60;88.04;103101.34;5272204;28;20048;-71
2022/03/26 06:53:04;;;;;;;36.97;23.60;;;;;;;6.72;88.00;103099.19;5274825;28;20064;-73
2022/03/26 06:55:35;;;;;;;37.78;22.85;;;;;;;6.81;87.88;103111.06;5274278;28;20099;-71
2022/03/26 06:58:07;;;;;;;38.95;23.98;;;;;;;6.83;87.33;103104.91;5274066;28;20074;-70
2022/03/26 07:00:38;;;;;;;40.70;24.17;;;;;;;6.93;86.71;103100.25;5272624;28;20039;-70
2022/03/26 07:03:09;;;;;;;38.85;23.75;;;;;;;7.07;86.51;103104.97;5265541;28;20059;-71
2022/03/26 07:05:41;;;;;;;38.35;24.05;;;;;;;7.14;85.87;103106.47;5270329;28;20035;-70
2022/03/26 07:08:12;;;;;;;40.25;23.65;;;;;;;7.26;84.53;103113.88;5273602;28;20031;-70
2022/03/26 07:10:47;;;;;;;38.28;23.48;;;;;;;7.34;84.25;103105.78;5273593;28;20111;-70
2022/03/26 07:13:18;;;;;;;37.92;23.73;;;;;;;7.47;84.19;103114.88;5273948;28;20056;-70
2022/03/26 07:15:49;;;;;;;33.58;22.85;;;;;;;7.55;83.83;103109.41;5271235;28;20025;-70
2022/03/26 07:18:20;;;;;;;40.08;23.73;;;;;;;7.82;81.21;103117.97;5273217;28;20068;-70
2022/03/26 07:20:57;;;;;;;36.03;24.10;;;;;;;7.98;80.93;103113.88;5271295;28;20493;-71
2022/03/26 07:23:28;;;;;;;39.80;25.20;;;;;;;8.16;81.04;103116.72;5269191;28;20028;-71
2022/03/26 07:26:00;;;;;;;38.10;23.70;;;;;;;8.21;79.53;103110.41;5273385;28;20512;-71
2022/03/26 07:28:31;;;;;;;42.47;23.58;;;;;;;8.36;79.12;103113.34;5272305;28;20042;-71
2022/03/26 07:31:02;;;;;;;37.80;22.75;;;;;;;8.44;78.69;103122.59;5274221;28;20028;-71
2022/03/26 07:33:34;;;;;;;34.30;23.13;;;;;;;8.58;77.92;103115.97;5276226;28;20043;-71
2022/03/26 07:36:05;;;;;;;36.72;23.48;;;;;;;8.68;78.45;103117.31;5276216;28;20028;-71
2022/03/26 07:38:37;;;;;;;39.05;23.85;;;;;;;8.83;78.63;103119.31;5276012;28;21404;-71
2022/03/26 07:41:08;;;;;;;41.75;24.15;;;;;;;8.89;77.64;103121.66;5276876;28;20082;-71
2022/03/26 07:43:40;;;;;;;35.28;23.17;;;;;;;9.10;76.75;103125.16;5276732;28;20024;-71
2022/03/26 07:46:11;;;;;;;57.60;25.65;;;;;;;9.20;76.25;103125.59;5275814;28;20170;-72
2022/03/26 07:48:42;;;;;;;41.70;24.95;;;;;;;9.27;75.26;103120.03;5275677;28;20504;-71
2022/03/26 07:51:13;;;;;;;42.03;25.23;;;;;;;9.43;73.92;103130.72;5276741;28;20028;-72
2022/03/26 07:53:45;;;;;;;36.45;24.17;;;;;;;9.62;73.04;103122.03;5275360;28;20020;-69
2022/03/26 07:56:16;;;;;;;41.08;23.90;;;;;;;9.79;72.78;103124.75;5276657;28;20020;-69
2022/03/26 07:58:49;;;;;;;37.58;22.27;;;;;;;9.89;72.09;103123.44;5274720;28;20066;-69
2022/03/26 08:01:20;;;;;;;36.22;24.02;;;;;;;9.93;72.01;103132.84;5276820;28;20393;-69
2022/03/26 08:03:53;;;;;;;46.97;23.65;;;;;;;10.11;71.96;103127.66;5276566;28;20020;-69
2022/03/26 08:06:25;;;;;;;33.28;21.58;;;;;;;10.35;70.69;103134.44;5276401;28;20740;-69
2022/03/26 08:08:56;;;;;;;37.38;23.13;;;;;;;10.38;70.64;103129.06;5273777;28;20035;-69
2022/03/26 08:11:27;;;;;;;40.70;23.65;;;;;;;10.56;70.61;103126.44;5275267;28;20239;-69
2022/03/26 08:13:59;;;;;;;35.15;22.08;;;;;;;10.62;70.09;103134.03;5196872;28;2265440;-69
2022/03/26 08:16:30;;;;;;;37.33;21.42;;;;;;;10.74;69.06;103128.19;5272928;28;20109;-69
2022/03/26 08:19:01;;;;;;;38.65;22.08;;;;;;;10.98;68.79;103130.50;5275651;28;20016;-70
2022/03/26 08:21:35;;;;;;;36.97;21.70;;;;;;;11.04;66.68;103127.59;5277257;28;20024;-69
2022/03/26 08:24:06;;;;;;;37.72;22.55;;;;;;;11.23;67.27;103133.59;5277296;28;20031;-70
2022/03/26 08:26:38;;;;;;;37.42;22.15;;;;;;;11.33;67.85;103134.00;5277014;28;20029;-70
2022/03/26 08:29:10;;;;;;;33.70;21.95;;;;;;;11.45;66.54;103131.56;5276473;28;20032;-70
2022/03/26 08:31:41;;;;;;;35.40;22.15;;;;;;;11.65;65.41;103146.28;5276668;28;20064;-70
2022/03/26 08:34:12;;;;;;;37.40;21.45;;;;;;;11.74;65.54;103138.84;5276365;28;20469;-70
2022/03/26 08:36:44;;;;;;;33.38;20.75;;;;;;;11.87;65.41;103137.31;5277333;28;20409;-70
2022/03/26 08:39:15;;;;;;;35.00;21.20;;;;;;;11.85;65.63;103136.50;5277212;28;20123;-70
2022/03/26 08:41:47;;;;;;;36.15;21.17;;;;;;;12.21;63.72;103146.81;5276126;28;20115;-71
2022/03/26 08:44:18;;;;;;;31.92;20.65;;;;;;;12.31;64.29;103140.13;5271679;28;20036;-70
2022/03/26 08:46:49;;;;;;;35.78;21.75;;;;;;;12.55;62.78;103147.56;5275529;28;20021;-70
2022/03/26 08:49:20;;;;;;;31.75;20.08;;;;;;;12.62;63.19;103147.16;5276162;28;20063;-70
2022/03/26 08:51:52;;;;;;;29.92;19.92;;;;;;;12.98;61.69;103145.09;5276264;28;20115;-70
2022/03/26 08:54:23;;;;;;;32.40;20.90;;;;;;;13.02;60.35;103149.25;5276552;28;20029;-70
2022/03/26 08:56:55;;;;;;;34.70;21.08;;;;;;;13.27;61.09;103143.44;5276351;28;20068;-70
2022/03/26 08:59:26;;;;;;;35.80;21.08;;;;;;;13.36;60.63;103145.50;5274406;28;20052;-71
2022/03/26 09:01:57;;;;;;;32.00;20.38;;;;;;;13.48;59.45;103146.53;5276062;28;20025;-71
2022/03/26 09:04:28;;;;;;;34.80;22.42;;;;;;;13.59;59.78;103144.94;5276347;28;20024;-71
2022/03/26 09:07:00;;;;;;;40.92;22.15;;;;;;;13.77;58.55;103148.25;5272445;28;20040;-71
2022/03/26 09:09:31;;;;;;;34.20;21.13;;;;;;;13.92;58.09;103146.47;5272378;28;20024;-72
2022/03/26 09:12:03;;;;;;;31.63;21.50;;;;;;;13.94;57.69;103141.97;5266818;28;20081;-71
2022/03/26 09:14:34;;;;;;;34.03;20.52;;;;;;;14.20;57.23;103144.72;5268726;28;20048;-70
2022/03/26 09:17:05;;;;;;;36.42;21.65;;;;;;;14.25;55.95;103147.94;5269831;28;20114;-70
2022/03/26 09:19:37;;;;;;;38.88;24.10;;;;;;;14.26;56.78;103149.59;5273086;28;20768;-69
2022/03/26 09:22:08;;;;;;;38.17;24.42;;;;;;;14.54;55.91;103154.81;5275551;28;20031;-70
2022/03/26 09:24:40;;;;;;;36.13;22.55;;;;;;;14.57;55.62;103157.25;5274345;28;20085;-70
2022/03/26 09:27:11;;;;;;;29.83;21.38;;;;;;;14.77;54.56;103148.06;5272754;28;20032;-71
2022/03/26 09:29:45;;;;;;;36.08;21.98;;;;;;;14.83;53.66;103158.19;5273831;28;20074;-71
2022/03/26 09:32:16;;;;;;;31.83;22.10;;;;;;;15.01;53.01;103150.84;5276148;28;20028;-70
2022/03/26 09:34:48;;;;;;;34.55;21.17;;;;;;;15.12;53.58;103160.72;5275513;28;20071;-70
2022/03/26 09:37:20;;;;;;;28.80;20.27;;;;;;;15.16;52.69;103156.91;5274844;28;20485;-70
2022/03/26 09:39:51;;;;;;;30.58;19.73;;;;;;;15.32;51.37;103149.63;5273651;28;20058;-71
2022/03/26 09:42:24;;;;;;;32.53;20.70;;;;;;;15.44;51.31;103145.28;5274135;28;20028;-70
2022/03/26 09:44:56;;;;;;;;;;;;;;;15.94;51.27;103140.09;5275523;28;20436;-71
2022/03/26 09:47:27;;;;;;;30.88;19.38;;;;;;;15.76;50.81;103144.91;5274274;28;19913;-71
2022/03/26 09:50:00;;;;;;;29.48;19.00;;;;;;;15.78;49.57;103145.63;5273564;28;20424;-70
2022/03/26 09:52:31;;;;;;;35.53;21.10;;;;;;;16.06;50.31;103144.50;5272987;28;20541;-70
2022/03/26 09:55:04;;;;;;;27.52;19.15;;;;;;;16.16;49.26;103140.25;5274935;28;20306;-71
2022/03/26 09:57:35;;;;;;;30.80;19.25;;;;;;;16.16;48.48;103137.59;5275567;28;20428;-71
2022/03/26 10:00:09;;;;;;;29.88;18.00;;;;;;;16.23;47.96;103141.50;5271141;28;20028;-71
2022/03/26 10:02:40;;;;;;;32.40;18.98;;;;;;;16.32;47.43;103134.69;5272959;28;20039;-71
2022/03/26 10:05:17;;;;;;;27.83;18.00;;;;;;;16.36;49.13;103143.25;5274040;28;20087;-71
2022/03/26 10:07:49;;;;;;;28.90;18.63;;;;;;;16.56;47.00;103140.00;5275040;28;20063;-72
2022/03/26 10:10:23;;;;;;;27.40;18.00;;;;;;;16.68;46.14;103147.03;5265616;28;20111;-71
2022/03/26 10:12:54;;;;;;;30.15;17.90;;;;;;;16.55;45.67;103143.56;5269977;28;20051;-71
2022/03/26 10:15:26;;;;;;;26.98;18.27;;;;;;;16.82;46.37;103135.44;5269340;28;20028;-72
2022/03/26 10:18:08;;;;;;;29.88;18.20;;;;;;;17.06;46.29;103138.03;5274010;28;20028;-70
2022/03/26 10:20:40;;;;;;;26.77;17.67;;;;;;;16.89;45.46;103138.47;5271978;28;20017;-70
2022/03/26 10:23:11;;;;;;;26.10;18.25;;;;;;;16.85;45.82;103137.84;5275723;28;20539;-72
2022/03/26 10:25:42;;;;;;;28.95;18.08;;;;;;;16.97;44.13;103134.28;5274635;28;20035;-70
2022/03/26 10:28:23;;;;;;;30.40;16.60;;;;;;;17.25;44.49;103143.63;5275075;28;20039;-70
2022/03/26 10:34:20;;;;;;;19.67;13.55;;;;;;;17.11;41.35;103135.88;5275100;28;20056;-70
2022/03/26 10:36:54;;;;;;;22.73;13.10;;;;;;;17.33;40.23;103145.66;5275805;28;20381;-70
2022/03/26 10:39:29;;;;;;;20.02;13.90;;;;;;;17.22;39.25;103135.06;5273073;28;20050;-70
2022/03/26 10:42:00;;;;;;;23.77;13.52;;;;;;;17.37;38.96;103135.69;5266144;28;20115;-70
2022/03/26 10:44:32;;;;;;;23.27;14.32;;;;;;;17.36;38.38;103134.84;5271013;28;20116;-70
2022/03/26 10:47:04;;;;;;;24.73;14.88;;;;;;;17.36;39.82;103128.69;5269653;28;20584;-70
2022/03/26 10:49:37;;;;;;;23.48;14.63;;;;;;;17.45;39.80;103125.31;5272641;28;20025;-70
2022/03/26 10:52:14;;;;;;;27.95;14.95;;;;;;;17.38;39.11;103118.81;5270733;28;20147;-70
2022/03/26 10:54:47;;;;;;;22.25;14.20;;;;;;;17.63;38.09;103126.53;5273193;28;20040;-70
2022/03/26 10:57:21;;;;;;;;;;;;;;;18.18;38.51;103127.47;5275224;28;20064;-71
2022/03/26 10:59:54;;;;;;;24.38;14.48;;;;;;;17.68;38.72;103121.72;5273090;28;20290;-71
2022/03/26 11:02:25;;;;;;;22.67;13.75;;;;;;;17.82;36.95;103122.47;5269366;28;20058;-70
2022/03/26 11:04:57;;;;;;;20.92;14.13;;;;;;;17.84;36.87;103117.88;5273436;28;20514;-71
2022/03/26 11:07:29;;;;;;;24.88;14.27;;;;;;;17.86;37.25;103115.94;5278308;28;20505;-68
2022/03/26 11:10:04;;;;;;;25.48;14.32;;;;;;;18.09;37.30;103116.75;5278843;28;20016;-70
2022/03/26 11:12:42;;;;;;;21.35;12.98;;;;;;;18.11;38.76;103117.50;5277119;28;20089;-70
2022/03/26 11:15:22;;;;;;;19.90;12.73;;;;;;;18.30;37.97;103122.16;5277025;28;20569;-70
2022/03/26 11:18:31;;;;;;;19.92;12.85;;;;;;;18.54;37.99;103122.78;5278411;28;20104;-70
2022/03/26 11:21:36;;;;;;;25.10;14.43;;;;;;;18.32;37.89;103120.19;5276471;28;20081;-70
2022/03/26 11:24:16;;;;;;;24.30;13.25;;;;;;;18.13;38.09;103116.38;5276218;28;20028;-71
2022/03/26 11:26:53;;;;;;;20.05;12.82;;;;;;;18.37;38.19;103110.03;5277449;28;20066;-70
2022/03/26 11:30:02;;;;;;;19.20;12.43;;;;;;;18.60;38.35;103114.31;5278074;28;20020;-70
2022/03/26 11:32:43;;;;;;;18.63;12.10;;;;;;;18.48;38.51;103116.13;5277371;28;20031;-70
2022/03/26 11:35:16;;;;;;;18.48;12.05;;;;;;;18.44;38.13;103111.22;5278168;28;20024;-70
2022/03/26 11:37:56;;;;;;;21.02;12.10;;;;;;;18.67;39.37;103109.31;5278595;28;20512;-70
2022/03/26 11:40:44;;;;;;;17.00;11.82;;;;;;;18.90;38.92;103107.41;5277249;28;20060;-69